createdAt,value
2022-09-15T00:01:49.482Z,25
2022-09-15T00:07:27.415Z,24.9
2022-09-15T00:12:49.331Z,24.9
2022-09-15T00:18:29.271Z,24.9
2022-09-15T00:24:06.093Z,24.9
2022-09-15T00:29:42.791Z,24.9
2022-09-15T00:35:21.296Z,24.9
2022-09-15T00:40:58.935Z,24.9
2022-09-15T00:46:36.042Z,24.9
2022-09-15T00:52:37.405Z,24.9
2022-09-15T00:57:58.893Z,24.9
2022-09-15T01:03:35.285Z,24.9
2022-09-15T01:08:58.696Z,24.9
2022-09-15T01:14:35.282Z,24.9
2022-09-15T01:19:56.735Z,24.9
2022-09-15T01:25:07.580Z,24.9
2022-09-15T01:31:12.716Z,24.9
2022-09-15T01:36:48.729Z,24.8
2022-09-15T01:42:26.725Z,24.8
2022-09-15T01:47:48.404Z,24.8
2022-09-15T01:53:25.131Z,24.8
2022-09-15T01:59:02.362Z,24.8
2022-09-15T02:04:40.022Z,24.8
2022-09-15T02:10:01.037Z,24.8
2022-09-15T02:15:07.805Z,24.8
2022-09-15T02:20:14.399Z,24.8
2022-09-15T02:25:51.341Z,24.8
2022-09-15T02:31:29.342Z,24.9
2022-09-15T02:37:10.539Z,24.8
2022-09-15T02:42:47.915Z,24.8
2022-09-15T02:48:26.545Z,24.8
2022-09-15T02:54:03.973Z,24.8
2022-09-15T02:59:41.540Z,24.8
2022-09-15T03:05:21.816Z,24.8
2022-09-15T03:10:43.197Z,24.8
2022-09-15T03:16:05.516Z,24.8
2022-09-15T03:21:43.040Z,24.8
2022-09-15T03:27:20.764Z,24.8
2022-09-15T03:32:58.444Z,24.7
2022-09-15T03:38:38.919Z,24.7
2022-09-15T03:44:20.315Z,24.7
2022-09-15T03:49:57.819Z,24.7
2022-09-15T03:55:35.375Z,24.7
2022-09-15T04:00:57.704Z,24.6
2022-09-15T04:06:40.695Z,24.6
2022-09-15T04:12:17.703Z,24.6
2022-09-15T04:18:00.084Z,24.6
2022-09-15T04:23:40.478Z,24.6
2022-09-15T04:29:21.011Z,24.6
2022-09-15T04:34:58.395Z,24.6
2022-09-15T04:40:35.292Z,24.6
2022-09-15T04:46:12.885Z,24.6
2022-09-15T04:51:51.178Z,24.6
2022-09-15T04:57:29.618Z,24.6
2022-09-15T05:03:08.293Z,24.6
2022-09-15T05:08:46.119Z,24.6
2022-09-15T05:14:26.822Z,24.6
2022-09-15T05:20:05.529Z,24.6
2022-09-15T05:25:48.655Z,24.6
2022-09-15T05:31:26.485Z,24.6
2022-09-15T05:37:04.807Z,24.6
2022-09-15T05:42:43.279Z,24.6
2022-09-15T05:48:20.392Z,24.6
2022-09-15T05:53:58.218Z,24.6
2022-09-15T05:59:35.932Z,24.6
2022-09-15T06:05:12.562Z,28.6
2022-09-15T06:10:54.051Z,28.9
2022-09-15T06:16:32.058Z,29.8
2022-09-15T06:22:08.912Z,30.6
2022-09-15T06:27:48.392Z,31.4
2022-09-15T06:33:25.876Z,32.3
2022-09-15T06:39:02.772Z,32.2
2022-09-15T06:45:06.989Z,32.5
2022-09-15T06:51:03.971Z,33.3
2022-09-15T06:56:40.742Z,34.3
2022-09-15T07:02:21.712Z,35.1
2022-09-15T07:08:00.781Z,35.9
2022-09-15T07:13:42.533Z,36.8
2022-09-15T07:19:21.081Z,37.7
2022-09-15T07:24:59.122Z,38.3
2022-09-15T07:30:40.512Z,37.5
2022-09-15T07:36:20.975Z,38.3
2022-09-15T07:41:59.240Z,39.3
2022-09-15T07:47:40.518Z,40.3
2022-09-15T07:53:18.593Z,41.2
2022-09-15T07:58:40.929Z,42
2022-09-15T08:04:19.521Z,42.7
2022-09-15T08:10:06.470Z,43.5
2022-09-15T08:15:48.465Z,44
2022-09-15T08:21:10.929Z,44.8
2022-09-15T08:26:33.083Z,45.5
2022-09-15T08:31:55.903Z,46.2
2022-09-15T08:37:33.062Z,47
2022-09-15T08:43:17.019Z,47.8
2022-09-15T08:48:56.935Z,48.4
2022-09-15T08:54:56.216Z,49.1
2022-09-15T09:00:36.528Z,49.8
2022-09-15T09:06:15.254Z,50.3
2022-09-15T09:11:21.794Z,50.9
2022-09-15T09:17:00.522Z,51.6
2022-09-15T09:22:39.867Z,52.1
2022-09-15T09:28:24.181Z,51.5
2022-09-15T09:33:48.013Z,52.2
2022-09-15T09:39:26.179Z,52.8
2022-09-15T09:45:04.106Z,53.3
2022-09-15T09:50:43.215Z,52.7
2022-09-15T09:56:20.950Z,53.3
2022-09-15T10:01:58.606Z,53.6
2022-09-15T10:07:37.563Z,54.3
2022-09-15T10:13:15.498Z,54.7
2022-09-15T10:18:54.503Z,55.4
2022-09-15T10:24:34.832Z,56
2022-09-15T10:29:43.458Z,56.6
2022-09-15T10:35:21.940Z,56.8
2022-09-15T10:41:00.833Z,57.4
2022-09-15T10:46:39.512Z,58
2022-09-15T10:52:16.928Z,58.3
2022-09-15T10:58:18.647Z,58.3
2022-09-15T11:03:57.222Z,58.1
2022-09-15T11:09:36.491Z,57.3
2022-09-15T11:15:20.207Z,56.7
2022-09-15T11:20:58.910Z,56.4
2022-09-15T11:26:36.738Z,56.3
2022-09-15T11:32:15.413Z,56.7
2022-09-15T11:37:53.342Z,57.6
2022-09-15T11:43:35.069Z,58.1
2022-09-15T11:49:12.937Z,58.8
2022-09-15T11:54:50.309Z,59.1
2022-09-15T12:00:33.772Z,59.4
2022-09-15T12:06:11.857Z,59.7
2022-09-15T12:11:34.709Z,59.8
2022-09-15T12:17:18.037Z,60.1
2022-09-15T12:23:22.425Z,60.3
2022-09-15T12:28:59.948Z,60.5
2022-09-15T12:34:41.146Z,60.6
2022-09-15T12:40:04.049Z,60.8
2022-09-15T12:45:42.206Z,60.9
2022-09-15T12:51:19.954Z,60.9
2022-09-15T12:56:59.400Z,61
2022-09-15T13:03:03.420Z,61.1
2022-09-15T13:08:46.734Z,61.1
2022-09-15T13:14:24.892Z,61.1
2022-09-15T13:20:03.381Z,61.1
2022-09-15T13:25:40.976Z,61
2022-09-15T13:31:22.724Z,60.9
2022-09-15T13:39:50.280Z,60.4
2022-09-15T13:45:32.685Z,60.4
2022-09-15T13:51:10.974Z,60.5
2022-09-15T13:56:48.895Z,60.4
2022-09-15T14:04:12.932Z,59.7
2022-09-15T14:09:56.279Z,58.9
2022-09-15T14:15:33.866Z,58.3
2022-09-15T14:21:17.930Z,57.7
2022-09-15T14:27:00.291Z,57.3
2022-09-15T14:32:41.543Z,56.9
2022-09-15T14:38:27.293Z,56.6
2022-09-15T14:44:08.946Z,56.2
